Archival Weather

Chicago O'Hare International

Chicago, Illinois (KORD)

Report from: Saturday, March 5, 2022 8:34 PM CST
Current time: Saturday, February 4, 2023 10:58 PM CST

Current weather
Weather history
Weather forecast

Temperature16.7°C (62.1°F)
Dew point12.2°C (54.0°F)
Winds 17 kts (8.7 m/s, 19.6 mph) South (190°)
Wind gusts 31 kts (15.9 m/s, 35.7 mph)
Peak wind 44 kts (22.6 m/s, 50.6 mph) South (190°) at 19:57
Visibility10 mi. (16.1 km)
Clouds Few clouds 4,400 ft. (1,341 m)
Scattered clouds 6,000 ft. (1,829 m)
Ceiling: Broken clouds 7,500 ft. (2,286 m)
Altimeter29.64 in.Hg (1004 mB)
Precipitiation0.01 in. (0 mm)
Precip. events Rain began 8:01 PM
Rain ended 8:28 PM
Thunderstorm began 7:53 PM
Thunderstorm ended 8:34 PM
Relative humidity75 %
Density altitude722 ft. (220 m)
Remarks System requires maintenance
Automated weather observing station with precipitation discriminator
Lightning observed
Distant southeast
Flight conditions Visual Meteorological Conditions
Raw dataKORD 060234Z 19017G31KT 10SM FEW044 SCT060 BKN075 17/12 A2964 RMK AO2 PK WND 19044/0157 LTG DSNT SE RAB01E28 TSB0153E34 P0001 T01670122 $
An unhandled exception has occurred. See browser dev tools for details. Reload 🗙